Flight Track Log - Related Links

Times and Time Zones

All times are in EDT time to prevent confusion due to time zone crossing. See the UPS1336 flight status page for this flight to view local times or setup timezone preferences in your user account.


Time Position Orientation Groundspeed Altitude Reporting Facility
EDT Latitude Longitude Course Direction KTS MPH feet Rate Location/Type
Thu 02:58:52 AM 38.1790 -85.7290 90° East 124 143 500  Level FlightAware ADS-B
Thu 02:59:17 AM 38.1630 -85.7220 161° South 152 175 2,200 3,600 Climbing FlightAware ADS-B
Thu 02:59:32 AM 38.1520 -85.7180 164° South 158 182 2,900 2,400 Climbing FlightAware ADS-B
Thu 02:59:57 AM 38.1320 -85.7130 169° South 194 223 3,800 2,400 Climbing FlightAware ADS-B
Thu 03:00:27 AM 38.1040 -85.7040 166° South 234 269 5,100 2,800 Climbing FlightAware ADS-B
Thu 03:00:57 AM 38.0710 -85.6920 164° South 270 311 6,600 3,200 Climbing FlightAware ADS-B
Thu 03:01:12 AM 38.0520 -85.6780 150° Southeast 284 327 7,500 3,800 Climbing FlightAware ADS-B
Thu 03:01:27 AM 38.0370 -85.6630 142° Southeast 289 333 8,500 3,927 Climbing FlightAware ADS-B
Thu 03:02:07 AM 37.9940 -85.6210 142° Southeast 304 350 11,100 3,000 Climbing FlightAware ADS-B
Thu 03:02:47 AM 37.9380 -85.5880 155° Southeast 361 415 12,500 2,753 Climbing FlightAware ADS-B
Thu 03:03:32 AM 37.8630 -85.5500 158° South 389 448 15,000 2,682 Climbing FlightAware ADS-B
Thu 03:04:12 AM 37.7930 -85.5140 158° South 430 495 16,300 2,175 Climbing FlightAware ADS-B
Thu 03:04:52 AM 37.7140 -85.4750 159° South 459 528 17,900 2,753 Climbing FlightAware ADS-B
Thu 03:05:37 AM 37.6270 -85.4310 158° South 466 536 20,200 2,933 Climbing FlightAware ADS-B
Thu 03:06:22 AM 37.5340 -85.3840 158° South 477 549 22,300 2,541 Climbing FlightAware ADS-B
Thu 03:07:02 AM 37.4520 -85.3430 158° South 489 563 23,800 2,174 Climbing FlightAware ADS-B
Thu 03:07:31 AM 37.3871 -85.3106 158° South 499 574 24,800 2,095 Climbing FlightAware ADS-B
Thu 03:08:05 AM 37.3127 -85.2735 158° South 508 585 26,000 1,938 Climbing FlightAware ADS-B
Thu 03:08:36 AM 37.2445 -85.2395 158° South 519 597 26,900 1,619 Climbing FlightAware ADS-B
Thu 03:09:08 AM 37.1738 -85.2043 158° South 528 608 27,700 1,839 Climbing FlightAware ADS-B
Thu 03:09:38 AM 37.1047 -85.1700 158° South 528 608 28,800 2,300 Climbing FlightAware ADS-B
Thu 03:10:08 AM 37.0366 -85.1364 159° South 529 609 30,000 2,294 Climbing FlightAware ADS-B
Thu 03:10:46 AM 36.9503 -85.0938 158° South 528 608 31,400 2,118 Climbing FlightAware ADS-B
Thu 03:11:16 AM 36.8822 -85.0602 158° South 529 609 32,400 1,967 Climbing FlightAware ADS-B
Thu 03:11:47 AM 36.8111 -85.0254 159° South 531 611 33,400 1,905 Climbing FlightAware ADS-B
Thu 03:12:19 AM 36.7389 -84.9900 159° South 531 611 34,400 1,969 Climbing FlightAware ADS-B
Thu 03:12:51 AM 36.6665 -84.9547 159° South 527 606 35,500 1,935 Climbing FlightAware ADS-B
Thu 03:13:21 AM 36.5981 -84.9213 159° South 521 600 36,400 1,475 Climbing FlightAware ADS-B
Thu 03:13:52 AM 36.5288 -84.8876 159° South 519 597 37,000 581 Climbing FlightAware ADS-B
Thu 03:14:23 AM 36.4597 -84.8539 159° South 516 594 37,000  Level FlightAware ADS-B
Thu 03:14:53 AM 36.3923 -84.8211 159° South 515 593 37,000  Level FlightAware ADS-B
Thu 03:15:25 AM 36.3214 -84.7867 159° South 514 592 37,000  Level FlightAware ADS-B
Thu 03:15:56 AM 36.2544 -84.7544 159° South 515 593 37,000  Level FlightAware ADS-B
Thu 03:16:27 AM 36.1850 -84.7211 159° South 515 593 37,000  Level FlightAware ADS-B
Thu 03:16:57 AM 36.1178 -84.6888 159° South 516 594 37,000  Level FlightAware ADS-B
Thu 03:17:28 AM 36.0496 -84.6562 159° South 517 595 37,000  Level FlightAware ADS-B
Thu 03:17:59 AM 35.9805 -84.6232 159° South 517 595 37,000  Level FlightAware ADS-B
Thu 03:18:29 AM 35.9131 -84.5911 159° South 516 594 37,000  Level FlightAware ADS-B
Thu 03:18:59 AM 35.8458 -84.5589 159° South 516 594 37,000  Level FlightAware ADS-B
Thu 03:19:33 AM 35.7711 -84.5233 159° South 515 593 37,000  Level FlightAware ADS-B
Thu 03:20:03 AM 35.7030 -84.4908 159° South 514 592 37,000  Level FlightAware ADS-B
Thu 03:20:35 AM 35.6320 -84.4570 159° South 513 590 37,000  Level FlightAware ADS-B
Thu 03:21:05 AM 35.5654 -84.4254 159° South 514 592 37,000  Level FlightAware ADS-B
Thu 03:21:35 AM 35.4980 -84.3933 159° South 513 590 37,000  Level FlightAware ADS-B
Thu 03:22:06 AM 35.4309 -84.3616 159° South 513 590 37,000  Level FlightAware ADS-B
Thu 03:22:36 AM 35.3638 -84.3299 159° South 514 592 37,000  Level FlightAware ADS-B
Thu 03:23:06 AM 35.2963 -84.2980 159° South 514 592 37,000  Level FlightAware ADS-B
Thu 03:23:39 AM 35.2241 -84.2641 159° South 515 593 37,000  Level FlightAware ADS-B
Thu 03:24:10 AM 35.1555 -84.2320 159° South 515 593 37,000  Level FlightAware ADS-B
Thu 03:24:40 AM 35.0878 -84.2002 159° South 515 593 37,000  Level FlightAware ADS-B
Thu 03:25:31 AM 34.9750 -84.1477 159° South 515 593 37,000  Level FlightAware ADS-B
Thu 03:26:01 AM 34.9075 -84.1164 159° South 516 594 37,000  Level FlightAware ADS-B
Thu 03:26:32 AM 34.8387 -84.0843 159° South 517 595 37,000  Level FlightAware ADS-B
Thu 03:27:02 AM 34.7710 -84.0529 159° South 517 595 37,000  Level FlightAware ADS-B
Thu 03:27:32 AM 34.7037 -84.0217 159° South 518 596 37,000  Level FlightAware ADS-B
Thu 03:28:03 AM 34.6341 -83.9894 159° South 518 596 37,000  Level FlightAware ADS-B
Thu 03:28:33 AM 34.5650 -83.9572 159° South 519 597 37,000  Level FlightAware ADS-B
Thu 03:29:04 AM 34.4962 -83.9254 159° South 519 597 37,000  Level FlightAware ADS-B
Thu 03:29:34 AM 34.4288 -83.8943 159° South 519 597 37,000  Level FlightAware ADS-B
Thu 03:30:04 AM 34.3608 -83.8631 159° South 520 598 37,000  Level FlightAware ADS-B
Thu 03:30:35 AM 34.2919 -83.8314 159° South 520 598 37,000  Level FlightAware ADS-B
Thu 03:31:05 AM 34.2241 -83.8002 159° South 519 597 37,000  Level FlightAware ADS-B
Thu 03:31:35 AM 34.1562 -83.7691 159° South 519 597 37,000  Level FlightAware ADS-B
Thu 03:32:06 AM 34.0869 -83.7374 159° South 520 598 37,000  Level FlightAware ADS-B
Thu 03:32:38 AM 34.0154 -83.7047 159° South 522 601 37,000  Level FlightAware ADS-B
Thu 03:33:15 AM 33.9326 -83.6671 159° South 523 602 37,000  Level FlightAware ADS-B
Thu 03:33:48 AM 33.8574 -83.6329 159° South 522 601 37,000  Level FlightAware ADS-B
Thu 03:34:32 AM 33.7660 -83.5910 159° South 515 593 37,000  Level FlightAware ADS-B
Thu 03:35:17 AM 33.6700 -83.5480 160° South 515 593 37,000  Level FlightAware ADS-B
Thu 03:35:57 AM 33.5730 -83.5040 159° South 514 592 37,000  Level FlightAware ADS-B
Thu 03:36:37 AM 33.4860 -83.4650 159° South 513 590 37,000  Level FlightAware ADS-B
Thu 03:37:22 AM 33.3820 -83.4180 159° South 513 590 37,000  Level FlightAware ADS-B
Thu 03:37:57 AM 33.3090 -83.3860 160° South 514 592 37,000  Level FlightAware ADS-B
Thu 03:38:47 AM 33.1880 -83.3320 160° South 523 602 37,000  Level FlightAware ADS-B
Thu 03:39:27 AM 33.1010 -83.2930 159° South 524 603 37,000  Level FlightAware ADS-B
Thu 03:40:07 AM 33.0030 -83.2500 160° South 526 605 37,000  Level FlightAware ADS-B
Thu 03:40:42 AM 32.9240 -83.2140 159° South 526 605 37,000  Level FlightAware ADS-B
Thu 03:41:32 AM 32.8220 -83.1690 160° South 518 596 37,000  Level FlightAware ADS-B
Thu 03:42:17 AM 32.7290 -83.1270 159° South 518 596 37,000  Level FlightAware ADS-B
Thu 03:42:57 AM 32.6530 -83.0920 159° South 518 596 37,000  Level FlightAware ADS-B
Thu 03:43:37 AM 32.5770 -83.0570 159° South 518 596 37,000  Level FlightAware ADS-B
Thu 03:44:02 AM 32.4672 -83.0158 159° South 524 603 37,000  Level Jacksonville Center
Thu 03:45:02 AM 32.3272 -82.9517 159° South 530 610 37,000  Level Jacksonville Center
Thu 03:46:02 AM 32.2042 -82.9000 160° South 530 610 37,000  Level Jacksonville Center
Thu 03:47:02 AM 32.0664 -82.8361 159° South 525 604 37,000  Level Jacksonville Center
Thu 03:48:02 AM 31.9306 -82.7775 160° South 525 604 37,000  Level Jacksonville Center
Thu 03:49:02 AM 31.7928 -82.7189 160° South 525 604 37,000  Level Jacksonville Center
Thu 03:50:02 AM 31.6547 -82.6583 160° South 525 604 37,000  Level Jacksonville Center
Thu 03:51:02 AM 31.5253 -82.6025 160° South 525 604 37,000  Level Jacksonville Center
Thu 03:52:02 AM 31.3956 -82.5469 160° South 514 592 37,000  Level Jacksonville Center
Thu 03:53:02 AM 31.2536 -82.4892 161° South 501 577 37,000  Level Jacksonville Center
Thu 03:54:02 AM 31.1258 -82.4339 160° South 495 570 37,000  Level Jacksonville Center
Thu 03:55:02 AM 30.9964 -82.3789 160° South 495 570 37,000  Level Jacksonville Center
Thu 04:00:57 AM 30.2450 -82.0610 160° South 479 551 37,000  Level FlightAware ADS-B
Thu 04:01:37 AM 30.1740 -82.0310 160° South 479 551 37,000  Level FlightAware ADS-B
Thu 04:02:17 AM 30.0780 -81.9920 161° South 478 550 37,000  Level FlightAware ADS-B
Thu 04:03:02 AM 29.9810 -81.9530 161° South 487 560 37,000  Level FlightAware ADS-B
Thu 04:03:42 AM 29.8990 -81.9190 160° South 495 570 37,000  Level FlightAware ADS-B
Thu 04:04:27 AM 29.8040 -81.8800 160° South 501 577 37,000  Level FlightAware ADS-B
Thu 04:05:02 AM 29.7240 -81.8470 160° South 504 580 37,000  Level FlightAware ADS-B
Thu 04:05:52 AM 29.6110 -81.8010 161° South 496 571 37,000  Level FlightAware ADS-B
Thu 04:06:32 AM 29.5280 -81.7660 160° South 481 554 37,000  Level FlightAware ADS-B
Thu 04:07:12 AM 29.4410 -81.7310 161° South 481 554 37,000  Level FlightAware ADS-B
Thu 04:07:47 AM 29.3770 -81.7040 160° South 481 554 37,000  Level FlightAware ADS-B
Thu 04:08:37 AM 29.2620 -81.6570 160° South 488 562 37,000  Level FlightAware ADS-B
Thu 04:09:12 AM 29.1900 -81.6280 161° South 489 563 37,000  Level FlightAware ADS-B
Thu 04:09:57 AM 29.0890 -81.5860 160° South 492 566 37,000  Level FlightAware ADS-B
Thu 04:10:42 AM 28.9940 -81.5470 160° South 491 565 37,000  Level FlightAware ADS-B
Thu 04:11:27 AM 28.8970 -81.5080 161° South 480 552 37,000  Level FlightAware ADS-B
Thu 04:12:07 AM 28.8100 -81.4720 160° South 479 551 37,000  Level FlightAware ADS-B
Thu 04:12:47 AM 28.7270 -81.4390 161° South 477 549 37,000  Level FlightAware ADS-B
Thu 04:13:27 AM 28.6410 -81.4040 160° South 477 549 37,000  Level FlightAware ADS-B
Thu 04:14:12 AM 28.5450 -81.3660 161° South 477 549 37,000  Level FlightAware ADS-B
Thu 04:14:57 AM 28.4530 -81.3290 161° South 478 550 37,000  Level FlightAware ADS-B
Thu 04:15:37 AM 28.3660 -81.2940 161° South 479 551 37,000  Level FlightAware ADS-B
Thu 04:16:17 AM 28.2830 -81.2610 161° South 480 552 37,000  Level FlightAware ADS-B
Thu 04:17:02 AM 28.1860 -81.2220 160° South 481 554 37,000  Level FlightAware ADS-B
Thu 04:17:42 AM 28.1010 -81.1880 161° South 481 554 37,000  Level FlightAware ADS-B
Thu 04:18:22 AM 28.0140 -81.1540 161° South 482 555 37,000  Level FlightAware ADS-B
Thu 04:19:07 AM 27.9200 -81.1160 160° South 491 565 37,000  Level FlightAware ADS-B
Thu 04:19:47 AM 27.8360 -81.0820 160° South 490 564 37,000  Level FlightAware ADS-B
Thu 04:20:27 AM 27.7490 -81.0480 161° South 491 565 37,000  Level FlightAware ADS-B
Thu 04:21:12 AM 27.6500 -81.0090 161° South 490 564 37,000  Level FlightAware ADS-B
Thu 04:21:52 AM 27.5640 -80.9740 160° South 482 555 37,000  Level FlightAware ADS-B
Thu 04:22:37 AM 27.4700 -80.9370 161° South 480 552 37,000  Level FlightAware ADS-B
Thu 04:23:12 AM 27.3940 -80.9070 161° South 477 549 37,000 -2,021 Level FlightAware ADS-B
Thu 04:25:47 AM 27.0790 -80.7830 161° South 494 568 30,600 -3,013 Descending FlightAware ADS-B
Thu 04:26:57 AM 26.9260 -80.7240 161° South 491 565 25,700 -3,814 Descending FlightAware ADS-B
Thu 04:28:07 AM 26.7800 -80.6670 161° South 461 531 21,700 -3,393 Descending FlightAware ADS-B
Thu 04:29:22 AM 26.6330 -80.6100 161° South 439 505 17,500 -3,391 Descending FlightAware ADS-B
Thu 04:30:02 AM 26.5460 -80.5770 161° South 422 486 15,200 -3,247 Descending FlightAware ADS-B
Thu 04:30:47 AM 26.4630 -80.5450 161° South 409 471 12,900 -2,824 Descending FlightAware ADS-B
Thu 04:31:27 AM 26.3900 -80.5170 161° South 389 448 11,200 -1,482 Descending FlightAware ADS-B
Thu 04:32:12 AM 26.3170 -80.4900 162° South 344 396 10,800 -282 Descending FlightAware ADS-B
Thu 04:32:52 AM 26.2600 -80.4690 162° South 304 350 10,800  Level FlightAware ADS-B
Thu 04:33:37 AM 26.2020 -80.4460 160° South 286 329 10,800  Level FlightAware ADS-B
Thu 04:34:17 AM 26.1510 -80.4250 160° South 287 330 10,800 -675 Level FlightAware ADS-B
Thu 04:34:57 AM 26.1070 -80.3890 144° Southeast 288 331 9,900 -1,418 Descending FlightAware ADS-B
Thu 04:35:12 AM 26.0920 -80.3760 142° Southeast 289 333 9,500 -1,500 Descending FlightAware ADS-B
Thu 04:35:37 AM 26.0650 -80.3530 143° Southeast 286 329 8,900 -1,855 Descending FlightAware ADS-B
Thu 04:36:07 AM 26.0330 -80.3260 143° Southeast 268 308 7,800 -2,182 Descending FlightAware ADS-B
Thu 04:36:32 AM 26.0100 -80.3060 142° Southeast 266 306 6,900 -2,400 Descending FlightAware ADS-B
Thu 04:37:47 AM 25.9350 -80.2440 143° Southeast 250 288 3,800 -1,945 Descending FlightAware ADS-B
Thu 04:38:57 AM 25.8710 -80.1940 145° Southeast 219 252 2,200 -1,280 Descending FlightAware ADS-B
Thu 04:39:02 AM 25.8670 -80.1910 146° Southeast 216 249 2,200 -686 Level FlightAware ADS-B
Thu 04:40:07 AM 25.8140 -80.1790 168° South 158 182 1,400 -686 Descending FlightAware ADS-B
Thu 04:40:12 AM 25.8110 -80.1820 222° Southwest 149 171 1,400 -565 Level FlightAware ADS-B
Thu 04:41:32 AM 25.8040 -80.2330 261° West 119 137 600 -655 Descending FlightAware ADS-B
Thu 04:42:02 AM 25.8030 -80.2520 267° West 117 135 200 -800 Descending FlightAware ADS-B
Thu 04:42:27 AM 25.8020 -80.2670 266° West 116 133 -480 Descending FlightAware ADS-B

Login

Don't have an account? Register now (free) for customized features, flight alerts, and more!